sensor_id;sensor_type;location;lat;lon;timestamp;pressure;altitude;pressure_sealevel;temperature;humidity
74578;BME280;63173;49.086;33.418;2023-06-22T00:00:48;100821.25;;;18.91;100.00
74578;BME280;63173;49.086;33.418;2023-06-22T00:03:13;100823.59;;;18.72;100.00
74578;BME280;63173;49.086;33.418;2023-06-22T00:05:39;100827.34;;;18.67;100.00
74578;BME280;63173;49.086;33.418;2023-06-22T00:08:04;100826.47;;;18.75;100.00
74578;BME280;63173;49.086;33.418;2023-06-22T00:10:30;100815.19;;;18.68;100.00
74578;BME280;63173;49.086;33.418;2023-06-22T00:12:55;100825.06;;;18.69;100.00
74578;BME280;63173;49.086;33.418;2023-06-22T00:15:21;100828.81;;;18.56;100.00
74578;BME280;63173;49.086;33.418;2023-06-22T00:17:46;100823.94;;;18.62;100.00
74578;BME280;63173;49.086;33.418;2023-06-22T00:20:12;100829.13;;;18.63;100.00
74578;BME280;63173;49.086;33.418;2023-06-22T00:22:38;100817.63;;;18.61;100.00
74578;BME280;63173;49.086;33.418;2023-06-22T00:25:09;100808.72;;;18.64;100.00
74578;BME280;63173;49.086;33.418;2023-06-22T00:27:35;100814.16;;;18.82;100.00
74578;BME280;63173;49.086;33.418;2023-06-22T00:30:00;100813.25;;;18.69;100.00
74578;BME280;63173;49.086;33.418;2023-06-22T00:32:26;100815.03;;;18.65;100.00
74578;BME280;63173;49.086;33.418;2023-06-22T00:34:51;100813.59;;;18.67;100.00
74578;BME280;63173;49.086;33.418;2023-06-22T00:37:18;100812.97;;;18.45;100.00
74578;BME280;63173;49.086;33.418;2023-06-22T00:39:43;100823.13;;;18.53;100.00
74578;BME280;63173;49.086;33.418;2023-06-22T00:42:09;100814.88;;;18.53;100.00
74578;BME280;63173;49.086;33.418;2023-06-22T00:44:35;100813.28;;;18.35;100.00
74578;BME280;63173;49.086;33.418;2023-06-22T00:47:01;100820.59;;;18.22;100.00
74578;BME280;63173;49.086;33.418;2023-06-22T00:49:27;100819.41;;;18.40;100.00
74578;BME280;63173;49.086;33.418;2023-06-22T00:51:53;100821.06;;;18.50;100.00
74578;BME280;63173;49.086;33.418;2023-06-22T00:54:19;100818.31;;;18.50;100.00
74578;BME280;63173;49.086;33.418;2023-06-22T00:56:51;100814.44;;;18.42;100.00
74578;BME280;63173;49.086;33.418;2023-06-22T00:59:20;100811.69;;;18.17;100.00
74578;BME280;63173;49.086;33.418;2023-06-22T01:01:46;100812.31;;;18.31;100.00
74578;BME280;63173;49.086;33.418;2023-06-22T01:04:11;100810.88;;;18.33;100.00
74578;BME280;63173;49.086;33.418;2023-06-22T01:06:43;100807.44;;;18.36;100.00
74578;BME280;63173;49.086;33.418;2023-06-22T01:09:22;100808.41;;;18.40;100.00
74578;BME280;63173;49.086;33.418;2023-06-22T01:11:55;100815.53;;;18.33;100.00
74578;BME280;63173;49.086;33.418;2023-06-22T01:14:32;100818.78;;;18.26;100.00
74578;BME280;63173;49.086;33.418;2023-06-22T01:17:01;100822.34;;;18.27;100.00
74578;BME280;63173;49.086;33.418;2023-06-22T01:19:48;100838.53;;;18.03;100.00
74578;BME280;63173;49.086;33.418;2023-06-22T01:22:23;100836.25;;;18.13;100.00
74578;BME280;63173;49.086;33.418;2023-06-22T01:25:09;100828.19;;;18.08;100.00
74578;BME280;63173;49.086;33.418;2023-06-22T01:27:53;100837.56;;;18.07;100.00
74578;BME280;63173;49.086;33.418;2023-06-22T01:30:22;100838.19;;;17.78;100.00
74578;BME280;63173;49.086;33.418;2023-06-22T01:32:51;100839.47;;;17.81;100.00
74578;BME280;63173;49.086;33.418;2023-06-22T01:35:18;100834.34;;;17.88;100.00
74578;BME280;63173;49.086;33.418;2023-06-22T01:37:45;100848.06;;;17.88;100.00
74578;BME280;63173;49.086;33.418;2023-06-22T01:40:11;100845.81;;;17.99;100.00
74578;BME280;63173;49.086;33.418;2023-06-22T01:42:38;100842.59;;;18.05;100.00
74578;BME280;63173;49.086;33.418;2023-06-22T01:45:05;100847.28;;;18.05;100.00
74578;BME280;63173;49.086;33.418;2023-06-22T01:47:31;100852.75;;;17.88;100.00
74578;BME280;63173;49.086;33.418;2023-06-22T01:49:57;100850.47;;;17.81;100.00
74578;BME280;63173;49.086;33.418;2023-06-22T01:52:23;100852.72;;;17.70;100.00
74578;BME280;63173;49.086;33.418;2023-06-22T01:54:48;100854.78;;;17.56;100.00
74578;BME280;63173;49.086;33.418;2023-06-22T01:57:14;100858.72;;;17.72;100.00
74578;BME280;63173;49.086;33.418;2023-06-22T02:02:15;100861.94;;;17.74;100.00
74578;BME280;63173;49.086;33.418;2023-06-22T02:04:47;100863.56;;;17.93;100.00
74578;BME280;63173;49.086;33.418;2023-06-22T02:07:15;100866.84;;;18.03;99.79
74578;BME280;63173;49.086;33.418;2023-06-22T02:09:46;100872.81;;;17.97;99.48
74578;BME280;63173;49.086;33.418;2023-06-22T02:12:17;100872.31;;;17.95;100.00
74578;BME280;63173;49.086;33.418;2023-06-22T02:14:44;100874.56;;;17.93;99.35
74578;BME280;63173;49.086;33.418;2023-06-22T02:17:12;100874.22;;;17.68;100.00
74578;BME280;63173;49.086;33.418;2023-06-22T02:19:38;100876.75;;;17.56;100.00
74578;BME280;63173;49.086;33.418;2023-06-22T02:22:06;100875.66;;;17.66;100.00
74578;BME280;63173;49.086;33.418;2023-06-22T02:24:31;100872.19;;;18.00;100.00
74578;BME280;63173;49.086;33.418;2023-06-22T02:26:59;100876.69;;;17.96;100.00
74578;BME280;63173;49.086;33.418;2023-06-22T02:29:25;100882.19;;;17.96;100.00
74578;BME280;63173;49.086;33.418;2023-06-22T02:31:52;100886.88;;;18.04;100.00
74578;BME280;63173;49.086;33.418;2023-06-22T02:34:17;100893.03;;;18.18;98.42
74578;BME280;63173;49.086;33.418;2023-06-22T02:36:47;100886.69;;;18.00;99.34
74578;BME280;63173;49.086;33.418;2023-06-22T02:39:20;100887.53;;;17.92;99.88
74578;BME280;63173;49.086;33.418;2023-06-22T02:41:47;100891.25;;;18.22;99.04
74578;BME280;63173;49.086;33.418;2023-06-22T02:44:12;100896.59;;;18.27;97.82
74578;BME280;63173;49.086;33.418;2023-06-22T02:46:38;100897.09;;;18.29;99.08
74578;BME280;63173;49.086;33.418;2023-06-22T02:49:03;100895.63;;;18.40;97.67
74578;BME280;63173;49.086;33.418;2023-06-22T02:51:32;100899.34;;;18.35;96.94
74578;BME280;63173;49.086;33.418;2023-06-22T02:53:59;100896.00;;;18.47;96.13
74578;BME280;63173;49.086;33.418;2023-06-22T02:56:24;100889.66;;;18.29;96.85
74578;BME280;63173;49.086;33.418;2023-06-22T02:58:50;100900.00;;;18.24;96.70
74578;BME280;63173;49.086;33.418;2023-06-22T03:01:15;100901.94;;;18.40;94.16
74578;BME280;63173;49.086;33.418;2023-06-22T03:03:41;100910.19;;;18.15;95.43
74578;BME280;63173;49.086;33.418;2023-06-22T03:06:06;100907.94;;;18.17;94.38
74578;BME280;63173;49.086;33.418;2023-06-22T03:08:31;100907.13;;;18.42;94.22
74578;BME280;63173;49.086;33.418;2023-06-22T03:10:57;100914.38;;;18.38;93.20
74578;BME280;63173;49.086;33.418;2023-06-22T03:13:23;100912.13;;;18.31;93.84
74578;BME280;63173;49.086;33.418;2023-06-22T03:15:48;100915.53;;;18.37;93.84
74578;BME280;63173;49.086;33.418;2023-06-22T03:18:14;100909.72;;;18.64;93.01
74578;BME280;63173;49.086;33.418;2023-06-22T03:20:41;100927.53;;;18.49;93.51
74578;BME280;63173;49.086;33.418;2023-06-22T03:23:06;100916.66;;;18.36;94.10
74578;BME280;63173;49.086;33.418;2023-06-22T03:25:32;100918.63;;;18.44;92.35
74578;BME280;63173;49.086;33.418;2023-06-22T03:27:59;100919.75;;;18.51;92.86
74578;BME280;63173;49.086;33.418;2023-06-22T03:30:25;100914.25;;;18.68;91.68
74578;BME280;63173;49.086;33.418;2023-06-22T03:32:51;100916.66;;;18.70;91.04
74578;BME280;63173;49.086;33.418;2023-06-22T03:35:16;100915.38;;;18.76;89.82
74578;BME280;63173;49.086;33.418;2023-06-22T03:37:41;100920.06;;;18.84;90.50
74578;BME280;63173;49.086;33.418;2023-06-22T03:40:07;100925.09;;;18.39;92.06
74578;BME280;63173;49.086;33.418;2023-06-22T03:42:34;100922.16;;;18.36;92.93
74578;BME280;63173;49.086;33.418;2023-06-22T03:45:01;100925.75;;;18.62;92.03
74578;BME280;63173;49.086;33.418;2023-06-22T03:47:27;100915.56;;;18.54;92.60
74578;BME280;63173;49.086;33.418;2023-06-22T03:49:52;100916.84;;;18.73;92.19
74578;BME280;63173;49.086;33.418;2023-06-22T03:52:21;100925.00;;;19.16;89.18
74578;BME280;63173;49.086;33.418;2023-06-22T03:54:47;100920.69;;;18.98;89.54
74578;BME280;63173;49.086;33.418;2023-06-22T03:57:12;100919.25;;;18.92;90.72
74578;BME280;63173;49.086;33.418;2023-06-22T03:59:38;100924.22;;;18.99;89.92
74578;BME280;63173;49.086;33.418;2023-06-22T04:02:03;100924.03;;;19.21;89.56
74578;BME280;63173;49.086;33.418;2023-06-22T04:04:29;100919.69;;;19.11;89.91
74578;BME280;63173;49.086;33.418;2023-06-22T04:06:55;100925.81;;;19.17;90.26
74578;BME280;63173;49.086;33.418;2023-06-22T04:09:20;100933.91;;;19.22;90.16
74578;BME280;63173;49.086;33.418;2023-06-22T04:11:47;100936.50;;;19.18;90.15
74578;BME280;63173;49.086;33.418;2023-06-22T04:14:12;100939.06;;;19.23;90.29
74578;BME280;63173;49.086;33.418;2023-06-22T04:16:37;100942.81;;;19.36;90.10
74578;BME280;63173;49.086;33.418;2023-06-22T04:19:03;100944.09;;;19.30;90.43
74578;BME280;63173;49.086;33.418;2023-06-22T04:21:28;100946.13;;;19.50;89.77
74578;BME280;63173;49.086;33.418;2023-06-22T04:23:54;100946.06;;;19.67;90.16
74578;BME280;63173;49.086;33.418;2023-06-22T04:26:20;100945.78;;;19.51;90.38
74578;BME280;63173;49.086;33.418;2023-06-22T04:28:47;100942.50;;;19.66;89.80
74578;BME280;63173;49.086;33.418;2023-06-22T04:31:17;100946.13;;;19.88;89.28
74578;BME280;63173;49.086;33.418;2023-06-22T04:33:43;100949.47;;;19.93;88.67
74578;BME280;63173;49.086;33.418;2023-06-22T04:36:08;100943.69;;;19.86;88.40
74578;BME280;63173;49.086;33.418;2023-06-22T04:38:34;100953.91;;;20.15;87.91
74578;BME280;63173;49.086;33.418;2023-06-22T04:40:59;100953.22;;;20.26;87.33
74578;BME280;63173;49.086;33.418;2023-06-22T04:43:27;100955.91;;;20.35;86.85
74578;BME280;63173;49.086;33.418;2023-06-22T04:45:56;100968.00;;;20.22;88.71
74578;BME280;63173;49.086;33.418;2023-06-22T04:48:22;100961.75;;;20.04;88.79
74578;BME280;63173;49.086;33.418;2023-06-22T04:50:47;100962.75;;;20.29;88.08
74578;BME280;63173;49.086;33.418;2023-06-22T04:53:12;100975.03;;;20.40;86.39
74578;BME280;63173;49.086;33.418;2023-06-22T04:55:39;100974.75;;;20.74;85.08
74578;BME280;63173;49.086;33.418;2023-06-22T04:58:07;100970.94;;;20.67;85.74
74578;BME280;63173;49.086;33.418;2023-06-22T05:00:32;100977.09;;;20.84;84.59
74578;BME280;63173;49.086;33.418;2023-06-22T05:03:01;100975.00;;;21.02;83.81
74578;BME280;63173;49.086;33.418;2023-06-22T05:05:28;100979.84;;;21.05;82.91
74578;BME280;63173;49.086;33.418;2023-06-22T05:07:56;100967.97;;;21.37;81.94
74578;BME280;63173;49.086;33.418;2023-06-22T05:10:25;100974.34;;;21.74;79.85
74578;BME280;63173;49.086;33.418;2023-06-22T05:12:50;100982.22;;;21.84;79.02
74578;BME280;63173;49.086;33.418;2023-06-22T05:15:16;100974.78;;;21.51;80.01
74578;BME280;63173;49.086;33.418;2023-06-22T05:17:41;100979.41;;;21.72;79.36
74578;BME280;63173;49.086;33.418;2023-06-22T05:20:11;100972.88;;;21.76;78.57
74578;BME280;63173;49.086;33.418;2023-06-22T05:22:37;100983.38;;;21.83;76.17
74578;BME280;63173;49.086;33.418;2023-06-22T05:25:03;100986.59;;;21.85;76.30
74578;BME280;63173;49.086;33.418;2023-06-22T05:27:28;100989.91;;;21.78;76.17
74578;BME280;63173;49.086;33.418;2023-06-22T05:29:53;100985.66;;;21.81;76.81
74578;BME280;63173;49.086;33.418;2023-06-22T05:32:19;100995.78;;;21.77;75.79
74578;BME280;63173;49.086;33.418;2023-06-22T05:34:44;100992.34;;;21.92;75.94
74578;BME280;63173;49.086;33.418;2023-06-22T05:37:10;100995.22;;;22.07;76.20
74578;BME280;63173;49.086;33.418;2023-06-22T05:39:36;100998.34;;;22.18;75.24
74578;BME280;63173;49.086;33.418;2023-06-22T05:42:07;100992.38;;;22.16;74.60
74578;BME280;63173;49.086;33.418;2023-06-22T05:44:33;101005.50;;;22.31;74.32
74578;BME280;63173;49.086;33.418;2023-06-22T05:46:59;101001.81;;;22.15;74.79
74578;BME280;63173;49.086;33.418;2023-06-22T05:49:24;101000.41;;;22.09;74.69
74578;BME280;63173;49.086;33.418;2023-06-22T05:51:55;100999.50;;;22.05;75.22
74578;BME280;63173;49.086;33.418;2023-06-22T05:54:20;100999.38;;;22.13;75.17
74578;BME280;63173;49.086;33.418;2023-06-22T05:56:45;101005.44;;;22.55;74.33
74578;BME280;63173;49.086;33.418;2023-06-22T05:59:11;101000.31;;;22.81;73.64
74578;BME280;63173;49.086;33.418;2023-06-22T06:01:37;101006.69;;;22.70;74.23
74578;BME280;63173;49.086;33.418;2023-06-22T06:04:03;101012.50;;;22.65;72.70
74578;BME280;63173;49.086;33.418;2023-06-22T06:06:29;101021.38;;;22.58;72.21
74578;BME280;63173;49.086;33.418;2023-06-22T06:08:55;101013.16;;;22.74;71.67
74578;BME280;63173;49.086;33.418;2023-06-22T06:11:21;101020.50;;;23.09;70.89
74578;BME280;63173;49.086;33.418;2023-06-22T06:13:47;101015.53;;;22.87;70.90
74578;BME280;63173;49.086;33.418;2023-06-22T06:16:13;101011.75;;;23.07;70.11
74578;BME280;63173;49.086;33.418;2023-06-22T06:18:38;101021.03;;;22.99;69.62
74578;BME280;63173;49.086;33.418;2023-06-22T06:21:03;101019.59;;;23.05;70.12
74578;BME280;63173;49.086;33.418;2023-06-22T06:23:29;101020.31;;;23.02;70.92
74578;BME280;63173;49.086;33.418;2023-06-22T06:25:54;101019.56;;;23.45;69.07
74578;BME280;63173;49.086;33.418;2023-06-22T06:28:20;101019.28;;;23.34;67.97
74578;BME280;63173;49.086;33.418;2023-06-22T06:30:45;101011.44;;;23.24;68.30
74578;BME280;63173;49.086;33.418;2023-06-22T06:33:12;101020.38;;;23.18;69.16
74578;BME280;63173;49.086;33.418;2023-06-22T06:35:38;101023.06;;;23.58;67.80
74578;BME280;63173;49.086;33.418;2023-06-22T06:38:03;101024.16;;;23.25;67.81
74578;BME280;63173;49.086;33.418;2023-06-22T06:40:29;101024.97;;;23.69;67.01
74578;BME280;63173;49.086;33.418;2023-06-22T06:42:54;101021.19;;;23.77;67.22
74578;BME280;63173;49.086;33.418;2023-06-22T06:45:21;101022.44;;;23.80;65.68
74578;BME280;63173;49.086;33.418;2023-06-22T06:47:51;101024.09;;;23.81;65.77
74578;BME280;63173;49.086;33.418;2023-06-22T06:50:17;101010.03;;;24.05;67.41
74578;BME280;63173;49.086;33.418;2023-06-22T06:52:43;101025.22;;;23.95;63.11
74578;BME280;63173;49.086;33.418;2023-06-22T06:55:09;101020.41;;;23.77;63.32
74578;BME280;63173;49.086;33.418;2023-06-22T06:57:39;101020.91;;;23.98;63.72
74578;BME280;63173;49.086;33.418;2023-06-22T07:00:11;101025.03;;;24.35;64.93
74578;BME280;63173;49.086;33.418;2023-06-22T07:02:39;101019.78;;;24.14;63.73
74578;BME280;63173;49.086;33.418;2023-06-22T07:05:09;101020.91;;;24.45;63.19
74578;BME280;63173;49.086;33.418;2023-06-22T07:07:35;101024.59;;;24.33;63.95
74578;BME280;63173;49.086;33.418;2023-06-22T07:10:01;101031.38;;;24.70;61.48
74578;BME280;63173;49.086;33.418;2023-06-22T07:12:26;101033.63;;;24.30;60.32
74578;BME280;63173;49.086;33.418;2023-06-22T07:14:52;101037.94;;;24.62;61.18
74578;BME280;63173;49.086;33.418;2023-06-22T07:17:18;101033.63;;;24.99;58.78
74578;BME280;63173;49.086;33.418;2023-06-22T07:19:43;101033.03;;;24.71;57.90
74578;BME280;63173;49.086;33.418;2023-06-22T07:22:08;101034.16;;;24.70;57.35
74578;BME280;63173;49.086;33.418;2023-06-22T07:24:34;101040.56;;;24.55;58.38
74578;BME280;63173;49.086;33.418;2023-06-22T07:26:59;101048.84;;;25.05;58.09
74578;BME280;63173;49.086;33.418;2023-06-22T07:29:25;101045.41;;;24.93;56.63
74578;BME280;63173;49.086;33.418;2023-06-22T07:31:52;101054.53;;;24.93;55.16
74578;BME280;63173;49.086;33.418;2023-06-22T07:34:18;101053.97;;;24.84;54.61
74578;BME280;63173;49.086;33.418;2023-06-22T07:36:44;101042.03;;;24.68;56.00
74578;BME280;63173;49.086;33.418;2023-06-22T07:39:10;101047.66;;;24.87;55.61
74578;BME280;63173;49.086;33.418;2023-06-22T07:41:37;101046.56;;;24.92;56.52
74578;BME280;63173;49.086;33.418;2023-06-22T07:44:02;101043.81;;;25.11;56.45
74578;BME280;63173;49.086;33.418;2023-06-22T07:46:29;101044.34;;;26.03;54.50
74578;BME280;63173;49.086;33.418;2023-06-22T07:48:56;101036.25;;;26.18;53.44
74578;BME280;63173;49.086;33.418;2023-06-22T07:51:22;101038.69;;;25.74;53.28
74578;BME280;63173;49.086;33.418;2023-06-22T07:53:47;101039.50;;;25.55;53.96
74578;BME280;63173;49.086;33.418;2023-06-22T07:56:13;101041.38;;;25.70;52.21
74578;BME280;63173;49.086;33.418;2023-06-22T07:58:44;101037.50;;;25.75;51.24
74578;BME280;63173;49.086;33.418;2023-06-22T08:01:09;101046.22;;;25.73;50.90
74578;BME280;63173;49.086;33.418;2023-06-22T08:03:34;101035.41;;;26.14;49.20
74578;BME280;63173;49.086;33.418;2023-06-22T08:06:00;101031.81;;;25.90;51.92
74578;BME280;63173;49.086;33.418;2023-06-22T08:08:25;101046.50;;;25.68;51.88
74578;BME280;63173;49.086;33.418;2023-06-22T08:10:51;101038.72;;;26.00;49.78
74578;BME280;63173;49.086;33.418;2023-06-22T08:13:16;101031.81;;;26.13;49.02
74578;BME280;63173;49.086;33.418;2023-06-22T08:15:41;101027.94;;;25.98;48.51
74578;BME280;63173;49.086;33.418;2023-06-22T08:18:07;101028.56;;;26.34;48.93
74578;BME280;63173;49.086;33.418;2023-06-22T08:20:32;101033.66;;;26.28;49.22
74578;BME280;63173;49.086;33.418;2023-06-22T08:22:58;101036.00;;;25.58;47.14
74578;BME280;63173;49.086;33.418;2023-06-22T08:25:30;101016.84;;;26.21;47.52
74578;BME280;63173;49.086;33.418;2023-06-22T08:27:55;101020.78;;;26.46;44.57
74578;BME280;63173;49.086;33.418;2023-06-22T08:30:22;101022.09;;;25.81;44.32
74578;BME280;63173;49.086;33.418;2023-06-22T08:32:47;101025.06;;;25.91;44.78
74578;BME280;63173;49.086;33.418;2023-06-22T08:35:13;101022.59;;;26.35;44.14
74578;BME280;63173;49.086;33.418;2023-06-22T08:37:38;101016.44;;;26.75;42.99
74578;BME280;63173;49.086;33.418;2023-06-22T08:40:07;101015.03;;;26.62;44.21
74578;BME280;63173;49.086;33.418;2023-06-22T08:42:33;101024.91;;;26.30;45.33
74578;BME280;63173;49.086;33.418;2023-06-22T08:44:59;101010.28;;;26.36;44.06
74578;BME280;63173;49.086;33.418;2023-06-22T08:47:25;101015.03;;;26.91;44.47
74578;BME280;63173;49.086;33.418;2023-06-22T08:49:50;101011.47;;;26.65;45.30
74578;BME280;63173;49.086;33.418;2023-06-22T08:52:17;101020.75;;;26.72;45.02
74578;BME280;63173;49.086;33.418;2023-06-22T08:54:45;101017.38;;;26.86;44.99
74578;BME280;63173;49.086;33.418;2023-06-22T08:57:10;101024.84;;;27.08;45.56
74578;BME280;63173;49.086;33.418;2023-06-22T08:59:35;101018.25;;;27.63;43.24
74578;BME280;63173;49.086;33.418;2023-06-22T09:02:01;101015.56;;;27.34;44.63
74578;BME280;63173;49.086;33.418;2023-06-22T09:04:26;101003.44;;;26.86;44.37
74578;BME280;63173;49.086;33.418;2023-06-22T09:06:52;101008.25;;;27.55;43.55
74578;BME280;63173;49.086;33.418;2023-06-22T09:09:17;101010.00;;;27.74;43.29
74578;BME280;63173;49.086;33.418;2023-06-22T09:11:43;101012.50;;;27.42;43.24
74578;BME280;63173;49.086;33.418;2023-06-22T09:14:10;101008.13;;;27.45;41.55
74578;BME280;63173;49.086;33.418;2023-06-22T09:16:36;101012.81;;;27.37;43.22
74578;BME280;63173;49.086;33.418;2023-06-22T09:19:02;101012.88;;;27.44;42.03
74578;BME280;63173;49.086;33.418;2023-06-22T09:21:27;101008.59;;;27.54;41.40
74578;BME280;63173;49.086;33.418;2023-06-22T09:23:53;101006.13;;;27.45;40.30
74578;BME280;63173;49.086;33.418;2023-06-22T09:26:18;101009.16;;;28.14;39.95
74578;BME280;63173;49.086;33.418;2023-06-22T09:28:44;101012.47;;;27.82;40.21
74578;BME280;63173;49.086;33.418;2023-06-22T09:31:09;101012.13;;;27.87;40.87
74578;BME280;63173;49.086;33.418;2023-06-22T09:33:36;101010.25;;;27.58;40.09
74578;BME280;63173;49.086;33.418;2023-06-22T09:36:03;101007.56;;;28.16;41.34
74578;BME280;63173;49.086;33.418;2023-06-22T09:38:29;101001.22;;;28.19;39.39
74578;BME280;63173;49.086;33.418;2023-06-22T09:40:54;101004.50;;;28.35;37.66
74578;BME280;63173;49.086;33.418;2023-06-22T09:43:20;101010.66;;;28.55;39.09
74578;BME280;63173;49.086;33.418;2023-06-22T09:45:45;101007.19;;;28.14;38.92
74578;BME280;63173;49.086;33.418;2023-06-22T09:48:11;101010.38;;;28.85;38.17
74578;BME280;63173;49.086;33.418;2023-06-22T09:50:36;101016.25;;;28.58;38.35
74578;BME280;63173;49.086;33.418;2023-06-22T09:53:02;101014.69;;;28.07;38.45
74578;BME280;63173;49.086;33.418;2023-06-22T09:55:28;101008.13;;;29.15;39.33
74578;BME280;63173;49.086;33.418;2023-06-22T09:57:53;101005.09;;;29.90;37.84
74578;BME280;63173;49.086;33.418;2023-06-22T10:00:20;101008.66;;;29.55;36.82
74578;BME280;63173;49.086;33.418;2023-06-22T10:02:46;101011.03;;;29.57;36.45
74578;BME280;63173;49.086;33.418;2023-06-22T10:05:12;101010.28;;;30.20;36.17
74578;BME280;63173;49.086;33.418;2023-06-22T10:07:37;100999.38;;;29.23;38.08
74578;BME280;63173;49.086;33.418;2023-06-22T10:10:09;101004.28;;;30.14;34.03
74578;BME280;63173;49.086;33.418;2023-06-22T10:12:34;100994.66;;;30.47;34.20
74578;BME280;63173;49.086;33.418;2023-06-22T10:15:00;101000.63;;;29.47;35.29
74578;BME280;63173;49.086;33.418;2023-06-22T10:17:26;100998.25;;;29.63;35.50
74578;BME280;63173;49.086;33.418;2023-06-22T10:19:51;100996.09;;;29.07;35.06
74578;BME280;63173;49.086;33.418;2023-06-22T10:22:16;100992.63;;;29.49;35.21
74578;BME280;63173;49.086;33.418;2023-06-22T10:24:42;100992.25;;;30.21;32.71
74578;BME280;63173;49.086;33.418;2023-06-22T10:27:11;100987.88;;;30.06;33.08
74578;BME280;63173;49.086;33.418;2023-06-22T10:29:37;100993.06;;;30.42;33.30
74578;BME280;63173;49.086;33.418;2023-06-22T10:32:03;100988.81;;;31.07;30.55
74578;BME280;63173;49.086;33.418;2023-06-22T10:34:28;100975.41;;;30.45;32.11
74578;BME280;63173;49.086;33.418;2023-06-22T10:36:53;100981.91;;;29.86;33.38
74578;BME280;63173;49.086;33.418;2023-06-22T10:39:19;100984.50;;;30.81;31.25
74578;BME280;63173;49.086;33.418;2023-06-22T10:41:44;100971.47;;;29.83;32.64
74578;BME280;63173;49.086;33.418;2023-06-22T10:44:10;100967.84;;;30.28;28.59
74578;BME280;63173;49.086;33.418;2023-06-22T10:46:36;100973.47;;;31.25;27.34
74578;BME280;63173;49.086;33.418;2023-06-22T10:49:01;100970.84;;;30.97;27.32
74578;BME280;63173;49.086;33.418;2023-06-22T10:51:27;100967.50;;;29.81;26.92
74578;BME280;63173;49.086;33.418;2023-06-22T10:53:53;100958.63;;;30.17;26.86
74578;BME280;63173;49.086;33.418;2023-06-22T10:56:18;100961.38;;;29.15;29.16
74578;BME280;63173;49.086;33.418;2023-06-22T10:58:45;100955.06;;;29.53;28.01
74578;BME280;63173;49.086;33.418;2023-06-22T11:01:11;100957.41;;;30.46;28.98
74578;BME280;63173;49.086;33.418;2023-06-22T11:03:36;100950.47;;;30.76;28.92
74578;BME280;63173;49.086;33.418;2023-06-22T11:06:02;100955.91;;;31.14;28.33
74578;BME280;63173;49.086;33.418;2023-06-22T11:08:27;100958.25;;;29.59;28.76
74578;BME280;63173;49.086;33.418;2023-06-22T11:10:53;100952.41;;;30.93;28.27
74578;BME280;63173;49.086;33.418;2023-06-22T11:13:18;100958.13;;;31.44;26.95
74578;BME280;63173;49.086;33.418;2023-06-22T11:15:44;100950.22;;;32.24;26.81
74578;BME280;63173;49.086;33.418;2023-06-22T11:18:09;100946.06;;;31.51;25.88
74578;BME280;63173;49.086;33.418;2023-06-22T11:20:34;100944.56;;;31.87;26.03
74578;BME280;63173;49.086;33.418;2023-06-22T11:23:07;100943.53;;;31.63;27.32
74578;BME280;63173;49.086;33.418;2023-06-22T11:25:33;100949.25;;;30.80;27.89
74578;BME280;63173;49.086;33.418;2023-06-22T11:28:01;100950.88;;;31.50;26.40
74578;BME280;63173;49.086;33.418;2023-06-22T11:30:27;100940.81;;;31.56;27.09
74578;BME280;63173;49.086;33.418;2023-06-22T11:32:52;100942.16;;;31.30;26.99
74578;BME280;63173;49.086;33.418;2023-06-22T11:35:18;100941.59;;;30.91;26.64
74578;BME280;63173;49.086;33.418;2023-06-22T11:37:43;100936.81;;;30.88;28.67
74578;BME280;63173;49.086;33.418;2023-06-22T11:40:09;100936.94;;;31.36;27.80
74578;BME280;63173;49.086;33.418;2023-06-22T11:42:35;100931.63;;;32.00;27.71
74578;BME280;63173;49.086;33.418;2023-06-22T11:45:01;100925.97;;;31.56;27.87
74578;BME280;63173;49.086;33.418;2023-06-22T11:47:27;100940.25;;;31.17;29.52
74578;BME280;63173;49.086;33.418;2023-06-22T11:49:52;100938.44;;;30.86;28.35
74578;BME280;63173;49.086;33.418;2023-06-22T11:52:18;100937.97;;;32.07;27.47
74578;BME280;63173;49.086;33.418;2023-06-22T11:54:44;100937.34;;;32.64;27.36
74578;BME280;63173;49.086;33.418;2023-06-22T11:57:11;100934.91;;;31.88;27.20
74578;BME280;63173;49.086;33.418;2023-06-22T11:59:36;100936.41;;;33.04;26.41
74578;BME280;63173;49.086;33.418;2023-06-22T12:02:01;100930.78;;;34.03;25.97
74578;BME280;63173;49.086;33.418;2023-06-22T12:04:27;100922.94;;;32.88;26.52
74578;BME280;63173;49.086;33.418;2023-06-22T12:06:53;100929.56;;;33.32;25.73
74578;BME280;63173;49.086;33.418;2023-06-22T12:09:18;100932.88;;;33.26;26.05
74578;BME280;63173;49.086;33.418;2023-06-22T12:11:44;100922.09;;;32.61;27.57
74578;BME280;63173;49.086;33.418;2023-06-22T12:14:09;100928.19;;;31.23;28.33
74578;BME280;63173;49.086;33.418;2023-06-22T12:16:35;100935.59;;;32.39;27.40
74578;BME280;63173;49.086;33.418;2023-06-22T12:19:00;100925.75;;;32.58;26.88
74578;BME280;63173;49.086;33.418;2023-06-22T12:21:26;100923.13;;;32.03;27.75
74578;BME280;63173;49.086;33.418;2023-06-22T12:23:51;100916.34;;;32.72;26.88
74578;BME280;63173;49.086;33.418;2023-06-22T12:26:16;100914.16;;;33.13;26.95
74578;BME280;63173;49.086;33.418;2023-06-22T12:28:42;100917.59;;;33.24;27.05
74578;BME280;63173;49.086;33.418;2023-06-22T12:31:07;100915.16;;;33.53;26.53
74578;BME280;63173;49.086;33.418;2023-06-22T12:33:33;100915.25;;;32.92;26.92
74578;BME280;63173;49.086;33.418;2023-06-22T12:35:58;100912.53;;;33.39;26.17